Time;durP1;ratioP1;P1;durP2;ratioP2;P2;SDS_P1;SDS_P2;PMS_P1;PMS_P2;Temp;Humidity;BMP_temperature;BMP_pressure;BME280_temperature;BME280_humidity;BME280_pressure;Samples;Min_cycle;Max_cycle;Signal;HPM_P1;HPM_P2
2022/05/05 00:01:32;;;;;;;14.13;13.13;;;;;;;;;;5054670;28;20111;-63
2022/05/05 00:03:58;;;;;;;15.98;14.93;;;;;;;;;;5049696;28;20095;-63
2022/05/05 00:06:25;;;;;;;14.07;13.20;;;;;;;;;;5053249;28;20071;-63
2022/05/05 00:08:50;;;;;;;14.75;13.85;;;;;;;;;;5051744;28;20702;-63
2022/05/05 00:16:43;;;;;;;12.55;11.52;;;;;;;;;;5053046;28;20028;-62
2022/05/05 00:19:09;;;;;;;11.57;10.77;;;;;;;;;;5052185;28;20039;-62
2022/05/05 00:21:34;;;;;;;13.38;12.50;;;;;;;;;;5054903;28;20028;-62
2022/05/05 00:24:00;;;;;;;12.60;11.77;;;;;;;;;;5050838;28;20032;-62
2022/05/05 00:26:25;;;;;;;12.60;11.82;;;;;;;;;;5052774;28;20047;-61
2022/05/05 00:28:51;;;;;;;11.10;10.30;;;;;;;;;;5054836;28;20039;-62
2022/05/05 00:31:16;;;;;;;11.70;10.80;;;;;;;;;;5056714;28;20065;-62
2022/05/05 00:33:41;;;;;;;12.95;12.18;;;;;;;;;;5050735;28;20040;-62
2022/05/05 00:36:07;;;;;;;14.00;13.15;;;;;;;;;;5054444;28;20037;-62
2022/05/05 00:38:32;;;;;;;14.23;13.35;;;;;;;;;;5051798;28;20036;-62
2022/05/05 00:40:58;;;;;;;14.45;13.55;;;;;;;;;;5045248;28;20059;-62
2022/05/05 00:43:23;;;;;;;15.73;14.73;;;;;;;;;;5052898;28;20040;-62
2022/05/05 00:45:49;;;;;;;18.25;17.17;;;;;;;;;;5054490;28;20044;-63
2022/05/05 00:48:16;;;;;;;14.05;13.20;;;;;;;;;;5050677;28;20044;-63
2022/05/05 00:50:41;;;;;;;14.88;13.95;;;;;;;;;;5051940;28;20434;-63
2022/05/05 00:53:07;;;;;;;15.38;14.48;;;;;;;;;;5052877;28;20473;-62
2022/05/05 00:55:35;;;;;;;17.30;16.23;;;;;;;;;;5056292;28;20047;-61
2022/05/05 00:58:02;;;;;;;17.00;16.00;;;;;;;;;;5048999;28;20048;-62
2022/05/05 01:00:29;;;;;;;18.33;17.25;;;;;;;;;;5054465;28;20442;-63
2022/05/05 01:02:54;;;;;;;17.35;16.17;;;;;;;;;;5053391;28;20055;-63
2022/05/05 01:05:20;;;;;;;17.83;16.77;;;;;;;;;;5051609;28;20572;-63
2022/05/05 01:07:46;;;;;;;21.33;20.13;;;;;;;;;;5052907;28;20051;-62
2022/05/05 01:10:12;;;;;;;22.25;21.00;;;;;;;;;;5055818;28;20020;-63
2022/05/05 01:12:37;;;;;;;17.90;16.83;;;;;;;;;;5053889;28;20029;-63
2022/05/05 01:15:03;;;;;;;17.88;16.83;;;;;;;;;;5055694;28;20151;-62
2022/05/05 01:17:29;;;;;;;19.42;18.33;;;;;;;;;;5060645;28;20067;-63
2022/05/05 01:19:54;;;;;;;20.65;19.48;;;;;;;;;;5051773;28;20033;-63
2022/05/05 01:22:20;;;;;;;18.15;17.10;;;;;;;;;;5050179;28;20143;-62
2022/05/05 01:30:13;;;;;;;15.55;14.63;;;;;;;;;;5055223;28;20119;-63
2022/05/05 01:32:39;;;;;;;16.77;15.77;;;;;;;;;;5054902;28;20174;-62
2022/05/05 01:35:04;;;;;;;17.08;16.00;;;;;;;;;;5054774;28;20037;-62
2022/05/05 01:37:30;;;;;;;19.75;18.58;;;;;;;;;;5053720;28;20040;-61
2022/05/05 01:39:55;;;;;;;17.23;16.23;;;;;;;;;;5053107;28;20035;-62
2022/05/05 01:42:21;;;;;;;21.70;20.35;;;;;;;;;;5055170;28;20029;-60
2022/05/05 01:44:47;;;;;;;19.02;17.83;;;;;;;;;;5050939;28;20040;-61
2022/05/05 01:47:12;;;;;;;15.82;14.90;;;;;;;;;;5059923;28;20171;-61
2022/05/05 01:49:38;;;;;;;15.52;14.60;;;;;;;;;;5052196;28;20064;-60
2022/05/05 01:52:12;;;;;;;21.92;20.52;;;;;;;;;;5050222;28;20032;-61
2022/05/05 01:54:38;;;;;;;20.58;19.42;;;;;;;;;;5050301;28;20033;-62
2022/05/05 01:57:04;;;;;;;19.60;18.42;;;;;;;;;;5048772;28;20501;-62
2022/05/05 01:59:30;;;;;;;17.48;16.42;;;;;;;;;;5052931;28;20115;-62
2022/05/05 02:01:56;;;;;;;20.52;19.35;;;;;;;;;;5046205;28;20050;-61
2022/05/05 02:04:22;;;;;;;17.65;16.65;;;;;;;;;;5051463;28;20593;-61
2022/05/05 02:06:47;;;;;;;15.73;14.75;;;;;;;;;;5053722;28;20032;-61
2022/05/05 02:09:12;;;;;;;20.17;19.02;;;;;;;;;;5052888;28;20536;-63
2022/05/05 02:11:41;;;;;;;17.27;16.27;;;;;;;;;;5053306;28;20116;-63
2022/05/05 02:14:07;;;;;;;16.75;15.73;;;;;;;;;;5054959;28;20032;-61
2022/05/05 02:16:32;;;;;;;18.38;17.27;;;;;;;;;;5050925;28;20036;-61
2022/05/05 02:18:58;;;;;;;11.43;10.70;;;;;;;;;;5051899;28;20058;-62
2022/05/05 02:21:23;;;;;;;16.98;15.88;;;;;;;;;;5053718;28;20116;-61
2022/05/05 02:23:48;;;;;;;20.85;19.60;;;;;;;;;;5060009;28;20067;-63
2022/05/05 02:26:14;;;;;;;21.48;20.25;;;;;;;;;;5065571;28;20649;-64
2022/05/05 02:28:39;;;;;;;25.00;23.60;;;;;;;;;;5059090;28;20062;-64
2022/05/05 02:31:04;;;;;;;23.60;22.27;;;;;;;;;;5053004;28;20052;-61
2022/05/05 02:33:30;;;;;;;21.55;20.35;;;;;;;;;;5069124;28;20081;-61
2022/05/05 02:38:46;;;;;;;25.50;24.02;;;;;;;;;;5055177;28;20028;-60
2022/05/05 02:41:12;;;;;;;27.38;25.77;;;;;;;;;;5055049;28;20433;-61
2022/05/05 02:43:37;;;;;;;27.30;25.77;;;;;;;;;;5054379;28;20114;-61
2022/05/05 02:46:04;;;;;;;25.98;24.58;;;;;;;;;;5052710;28;20393;-61
2022/05/05 02:48:29;;;;;;;24.75;23.35;;;;;;;;;;5052609;28;20116;-61
2022/05/05 02:50:54;;;;;;;26.02;24.63;;;;;;;;;;5056596;28;20040;-61
2022/05/05 02:56:04;;;;;;;23.70;22.35;;;;;;;;;;5055624;28;20029;-61
2022/05/05 02:58:29;;;;;;;21.38;20.17;;;;;;;;;;5051487;28;20051;-61
2022/05/05 03:00:56;;;;;;;20.52;19.35;;;;;;;;;;5056318;28;20024;-61
2022/05/05 03:03:21;;;;;;;24.83;23.45;;;;;;;;;;5052399;28;20033;-61
2022/05/05 03:05:46;;;;;;;24.58;23.15;;;;;;;;;;5054537;28;20043;-61
2022/05/05 03:08:12;;;;;;;26.67;25.17;;;;;;;;;;5054336;28;20029;-61
2022/05/05 03:10:38;;;;;;;26.77;25.27;;;;;;;;;;5062979;28;20443;-61
2022/05/05 03:13:04;;;;;;;24.23;22.83;;;;;;;;;;5051602;28;20247;-61
2022/05/05 03:15:30;;;;;;;27.75;26.15;;;;;;;;;;5053499;28;20120;-61
2022/05/05 03:17:55;;;;;;;29.02;27.20;;;;;;;;;;5052302;28;20029;-62
2022/05/05 03:20:20;;;;;;;27.45;25.95;;;;;;;;;;5056754;28;20048;-63
2022/05/05 03:22:46;;;;;;;29.20;27.50;;;;;;;;;;5054590;28;20980;-61
2022/05/05 03:25:11;;;;;;;26.50;24.95;;;;;;;;;;5055400;28;20445;-61
2022/05/05 03:27:37;;;;;;;29.13;27.38;;;;;;;;;;5052942;28;20098;-63
2022/05/05 03:30:03;;;;;;;28.80;27.23;;;;;;;;;;5056441;28;20174;-63
2022/05/05 03:32:29;;;;;;;27.10;25.58;;;;;;;;;;5052915;28;20509;-62
2022/05/05 03:34:55;;;;;;;28.75;27.15;;;;;;;;;;5053055;28;20036;-61
2022/05/05 03:37:20;;;;;;;27.02;25.52;;;;;;;;;;5055519;28;20519;-64
2022/05/05 03:39:46;;;;;;;25.23;23.83;;;;;;;;;;5056474;28;20032;-61
2022/05/05 03:42:11;;;;;;;27.33;25.77;;;;;;;;;;5054508;28;20505;-61
2022/05/05 03:44:37;;;;;;;27.48;25.88;;;;;;;;;;5055713;28;20055;-61
2022/05/05 03:47:03;;;;;;;24.50;23.10;;;;;;;;;;5052338;28;20445;-61
2022/05/05 03:49:29;;;;;;;26.75;25.27;;;;;;;;;;5053599;28;20036;-64
2022/05/05 03:51:56;;;;;;;28.55;26.98;;;;;;;;;;5056594;28;20078;-61
2022/05/05 03:54:24;;;;;;;27.30;25.80;;;;;;;;;;5055660;28;20029;-61
2022/05/05 03:56:49;;;;;;;27.23;25.65;;;;;;;;;;5053725;28;20056;-63
2022/05/05 03:59:15;;;;;;;27.95;26.25;;;;;;;;;;5051367;28;20526;-61
2022/05/05 04:01:40;;;;;;;26.30;24.80;;;;;;;;;;5053758;28;20020;-64
2022/05/05 04:04:06;;;;;;;27.02;25.52;;;;;;;;;;5053651;28;20040;-60
2022/05/05 04:06:32;;;;;;;25.55;24.15;;;;;;;;;;5061635;28;20446;-61
2022/05/05 04:08:58;;;;;;;20.10;18.98;;;;;;;;;;5050808;28;20642;-61
2022/05/05 04:11:23;;;;;;;21.55;20.23;;;;;;;;;;5054884;28;20025;-61
2022/05/05 04:13:49;;;;;;;23.60;22.20;;;;;;;;;;5056446;28;20339;-61
2022/05/05 04:16:14;;;;;;;20.65;19.50;;;;;;;;;;5053520;28;20032;-61
2022/05/05 04:18:40;;;;;;;22.92;21.63;;;;;;;;;;5053156;28;20136;-61
2022/05/05 04:21:05;;;;;;;19.13;18.02;;;;;;;;;;5053891;28;20048;-61
2022/05/05 04:23:31;;;;;;;20.15;18.95;;;;;;;;;;5053524;28;20047;-61
2022/05/05 04:25:57;;;;;;;18.58;17.48;;;;;;;;;;5059690;28;20036;-61
2022/05/05 04:28:23;;;;;;;19.67;18.48;;;;;;;;;;5056515;28;20091;-61
2022/05/05 04:30:49;;;;;;;19.70;18.42;;;;;;;;;;5054287;28;20052;-61
2022/05/05 04:33:14;;;;;;;21.63;20.33;;;;;;;;;;5055440;28;20363;-61
2022/05/05 04:35:40;;;;;;;21.92;20.73;;;;;;;;;;5053861;28;20402;-62
2022/05/05 04:38:06;;;;;;;19.42;18.27;;;;;;;;;;5051728;28;20107;-62
2022/05/05 04:40:32;;;;;;;21.77;19.95;;;;;;;;;;5052721;28;20037;-62
2022/05/05 04:42:57;;;;;;;20.98;19.77;;;;;;;;;;5053505;28;20099;-63
2022/05/05 04:45:23;;;;;;;21.00;19.70;;;;;;;;;;5069161;28;20589;-65
2022/05/05 04:47:48;;;;;;;20.25;19.13;;;;;;;;;;5070569;28;20116;-65
2022/05/05 04:50:14;;;;;;;17.88;16.77;;;;;;;;;;5052406;28;20477;-62
2022/05/05 04:52:39;;;;;;;19.33;17.98;;;;;;;;;;5053872;28;20354;-61
2022/05/05 04:55:05;;;;;;;17.25;16.15;;;;;;;;;;5049202;28;20481;-61
2022/05/05 04:57:30;;;;;;;15.98;14.95;;;;;;;;;;5050441;28;20033;-61
2022/05/05 04:59:56;;;;;;;16.63;15.63;;;;;;;;;;5054234;28;20094;-64
2022/05/05 05:02:21;;;;;;;20.40;19.20;;;;;;;;;;5049803;28;20068;-65
2022/05/05 05:04:46;;;;;;;17.85;16.75;;;;;;;;;;5052345;28;20099;-62
2022/05/05 05:07:12;;;;;;;17.95;16.85;;;;;;;;;;5053795;28;20119;-62
2022/05/05 05:09:38;;;;;;;17.63;16.63;;;;;;;;;;5054014;28;20040;-65
2022/05/05 05:12:03;;;;;;;19.90;18.70;;;;;;;;;;5053577;28;20099;-65
2022/05/05 05:14:29;;;;;;;19.30;18.10;;;;;;;;;;5051660;28;20037;-62
2022/05/05 05:16:54;;;;;;;20.52;19.33;;;;;;;;;;5050524;28;20051;-62
2022/05/05 05:19:20;;;;;;;22.05;20.80;;;;;;;;;;5051459;28;20047;-63
2022/05/05 05:21:46;;;;;;;21.98;20.67;;;;;;;;;;5051475;28;20025;-62
2022/05/05 05:24:12;;;;;;;22.25;20.90;;;;;;;;;;5050628;28;20136;-62
2022/05/05 05:26:37;;;;;;;22.63;21.40;;;;;;;;;;5053898;28;20210;-62
2022/05/05 05:29:03;;;;;;;23.55;22.15;;;;;;;;;;5049818;28;20096;-62
2022/05/05 05:31:28;;;;;;;22.98;21.67;;;;;;;;;;5050521;28;20028;-62
2022/05/05 05:33:54;;;;;;;20.63;19.42;;;;;;;;;;5050426;28;20032;-62
2022/05/05 05:36:20;;;;;;;21.95;20.70;;;;;;;;;;5053063;28;20374;-62
2022/05/05 05:38:45;;;;;;;24.55;23.05;;;;;;;;;;5052834;28;20036;-62
2022/05/05 05:41:11;;;;;;;22.33;21.05;;;;;;;;;;5053194;28;20020;-62
2022/05/05 05:43:36;;;;;;;22.90;21.58;;;;;;;;;;5052142;28;20085;-62
2022/05/05 05:46:01;;;;;;;22.55;21.25;;;;;;;;;;5052526;28;20469;-62
2022/05/05 05:48:27;;;;;;;26.63;24.23;;;;;;;;;;5054457;28;20588;-62
2022/05/05 05:50:52;;;;;;;20.23;19.13;;;;;;;;;;5048612;28;20043;-63
2022/05/05 05:53:18;;;;;;;19.92;18.80;;;;;;;;;;5069973;28;20584;-61
2022/05/05 05:55:43;;;;;;;18.75;17.65;;;;;;;;;;5053866;28;20611;-62
2022/05/05 05:58:09;;;;;;;23.52;22.13;;;;;;;;;;5062753;28;20087;-62
2022/05/05 06:00:34;;;;;;;22.55;21.20;;;;;;;;;;5055381;28;20458;-61
2022/05/05 06:05:45;;;;;;;21.17;19.90;;;;;;;;;;5053803;28;20521;-62
2022/05/05 06:08:11;;;;;;;23.67;22.30;;;;;;;;;;5057823;28;20106;-62
2022/05/05 06:10:36;;;;;;;24.27;22.88;;;;;;;;;;5055433;28;20028;-60
2022/05/05 06:13:02;;;;;;;25.35;23.95;;;;;;;;;;5054807;28;20267;-61
2022/05/05 06:15:27;;;;;;;26.20;24.70;;;;;;;;;;5058790;28;20346;-62
2022/05/05 06:17:53;;;;;;;24.25;22.80;;;;;;;;;;5055894;28;20598;-62
2022/05/05 06:20:18;;;;;;;24.08;22.73;;;;;;;;;;5058040;28;20071;-62
2022/05/05 06:22:44;;;;;;;25.80;23.98;;;;;;;;;;5050237;28;20040;-62
2022/05/05 06:25:12;;;;;;;23.08;21.75;;;;;;;;;;5052236;28;20104;-63
2022/05/05 06:27:38;;;;;;;23.02;21.73;;;;;;;;;;5057712;28;20115;-61
2022/05/05 06:30:05;;;;;;;24.67;23.17;;;;;;;;;;5052588;28;20147;-62
2022/05/05 06:32:31;;;;;;;25.92;24.40;;;;;;;;;;5053785;28;20037;-63
2022/05/05 06:34:56;;;;;;;24.60;23.13;;;;;;;;;;5056790;28;20528;-64
2022/05/05 06:37:22;;;;;;;26.45;24.95;;;;;;;;;;5053896;28;20060;-65
2022/05/05 06:39:49;;;;;;;23.27;21.98;;;;;;;;;;5056766;28;20116;-65
2022/05/05 06:42:15;;;;;;;24.40;22.77;;;;;;;;;;5060191;28;20028;-66
2022/05/05 06:44:41;;;;;;;24.45;23.05;;;;;;;;;;5057025;28;20111;-65
2022/05/05 06:47:07;;;;;;;25.05;23.55;;;;;;;;;;5056850;28;20120;-64
2022/05/05 06:49:33;;;;;;;26.92;25.42;;;;;;;;;;5055501;28;20039;-65
2022/05/05 06:51:59;;;;;;;21.40;20.20;;;;;;;;;;5059573;28;20028;-65
2022/05/05 06:54:26;;;;;;;23.33;22.02;;;;;;;;;;5056809;28;20064;-65
2022/05/05 06:56:51;;;;;;;23.05;21.75;;;;;;;;;;5055157;28;20441;-65
2022/05/05 06:59:17;;;;;;;25.45;23.98;;;;;;;;;;5055846;28;20148;-64
2022/05/05 07:01:56;;;;;;;26.63;25.23;;;;;;;;;;5052819;28;20056;-64
2022/05/05 07:07:13;;;;;;;25.90;23.58;;;;;;;;;;5054404;28;20375;-64
2022/05/05 07:12:24;;;;;;;27.23;25.65;;;;;;;;;;5049205;28;20082;-64
2022/05/05 07:14:50;;;;;;;27.65;26.15;;;;;;;;;;5048581;28;20060;-64
2022/05/05 07:17:15;;;;;;;26.33;24.92;;;;;;;;;;5053023;28;20101;-64
2022/05/05 07:19:41;;;;;;;29.05;27.42;;;;;;;;;;5056107;28;20029;-64
2022/05/05 07:22:07;;;;;;;30.20;28.50;;;;;;;;;;5052978;28;20029;-63
2022/05/05 07:24:33;;;;;;;29.45;27.73;;;;;;;;;;5053602;28;20052;-64
2022/05/05 07:26:59;;;;;;;29.52;26.77;;;;;;;;;;5053721;28;20458;-64
2022/05/05 07:29:25;;;;;;;31.52;29.80;;;;;;;;;;5054420;28;20109;-63
2022/05/05 07:31:50;;;;;;;29.73;27.83;;;;;;;;;;5055756;28;20809;-63
2022/05/05 07:34:16;;;;;;;32.10;30.40;;;;;;;;;;5056540;28;20036;-63
2022/05/05 07:36:41;;;;;;;31.20;29.40;;;;;;;;;;5053495;28;20024;-63
2022/05/05 07:39:07;;;;;;;29.48;27.88;;;;;;;;;;5057180;28;20032;-64
2022/05/05 07:41:42;;;;;;;30.65;28.95;;;;;;;;;;5056738;28;20075;-64
2022/05/05 07:44:07;;;;;;;25.52;24.10;;;;;;;;;;5053338;28;20063;-64
2022/05/05 07:46:33;;;;;;;33.47;31.67;;;;;;;;;;5054675;28;20080;-64
2022/05/05 07:48:59;;;;;;;26.25;24.77;;;;;;;;;;5054532;28;20469;-63
2022/05/05 07:51:25;;;;;;;12.65;11.75;;;;;;;;;;5056077;28;20705;-63
2022/05/05 07:56:34;;;;;;;22.02;20.77;;;;;;;;;;5052415;28;20031;-63
2022/05/05 07:59:00;;;;;;;25.55;24.17;;;;;;;;;;5049844;28;20029;-64
2022/05/05 08:01:26;;;;;;;12.85;11.85;;;;;;;;;;5050462;28;20720;-64
2022/05/05 08:03:52;;;;;;;16.77;15.77;;;;;;;;;;5054427;28;20028;-63
2022/05/05 08:06:17;;;;;;;16.88;15.93;;;;;;;;;;5055329;28;20063;-64
2022/05/05 08:08:43;;;;;;;15.55;14.65;;;;;;;;;;5052659;28;20064;-64
2022/05/05 08:11:08;;;;;;;15.40;14.30;;;;;;;;;;5054088;28;20234;-64
2022/05/05 08:13:33;;;;;;;20.33;19.13;;;;;;;;;;5067744;28;20473;-63
2022/05/05 08:15:59;;;;;;;16.25;15.30;;;;;;;;;;5053401;28;20086;-64
2022/05/05 08:18:24;;;;;;;20.15;18.98;;;;;;;;;;5059370;28;20033;-64
2022/05/05 08:20:51;;;;;;;31.23;29.58;;;;;;;;;;5061464;28;20037;-63
2022/05/05 08:23:16;;;;;;;32.03;30.20;;;;;;;;;;5053074;28;20068;-64
2022/05/05 08:28:28;;;;;;;32.33;30.42;;;;;;;;;;5051925;28;20033;-64
2022/05/05 08:30:55;;;;;;;31.50;29.80;;;;;;;;;;5055164;28;20020;-63
2022/05/05 08:33:20;;;;;;;32.42;30.52;;;;;;;;;;5051414;28;20418;-63
2022/05/05 08:35:45;;;;;;;31.67;29.98;;;;;;;;;;5054617;28;20029;-63
2022/05/05 08:38:11;;;;;;;33.50;31.70;;;;;;;;;;5054816;28;20041;-63
2022/05/05 08:40:39;;;;;;;33.15;31.33;;;;;;;;;;5052466;28;20123;-64
2022/05/05 08:43:05;;;;;;;33.17;31.08;;;;;;;;;;5054222;28;20098;-63
2022/05/05 08:45:35;;;;;;;35.08;33.08;;;;;;;;;;5052422;28;20041;-64
2022/05/05 08:48:05;;;;;;;34.20;31.77;;;;;;;;;;5060159;28;20103;-64
2022/05/05 08:50:32;;;;;;;35.33;33.45;;;;;;;;;;5055951;28;20501;-63
2022/05/05 08:53:00;;;;;;;33.30;31.50;;;;;;;;;;5050684;28;20036;-64
2022/05/05 08:55:26;;;;;;;35.13;33.22;;;;;;;;;;5052330;28;20510;-64
2022/05/05 08:57:51;;;;;;;16.52;15.43;;;;;;;;;;5054654;28;20043;-63
2022/05/05 09:00:17;;;;;;;17.40;15.95;;;;;;;;;;5052837;28;20117;-63
2022/05/05 09:02:43;;;;;;;14.48;13.50;;;;;;;;;;5054277;28;20482;-64
2022/05/05 09:05:09;;;;;;;15.40;14.40;;;;;;;;;;5052803;28;20051;-63
2022/05/05 09:07:51;;;;;;;14.57;13.68;;;;;;;;;;5051403;28;20036;-63
2022/05/05 09:10:19;;;;;;;14.63;13.32;;;;;;;;;;5053501;28;20048;-63
2022/05/05 09:13:01;;;;;;;13.75;12.75;;;;;;;;;;5053431;28;20139;-63
2022/05/05 09:15:32;;;;;;;14.45;13.55;;;;;;;;;;5054982;28;20048;-63
2022/05/05 09:18:12;;;;;;;18.67;17.58;;;;;;;;;;5053976;28;20102;-63
2022/05/05 09:20:38;;;;;;;16.20;15.13;;;;;;;;;;5054143;28;20044;-63
2022/05/05 09:23:04;;;;;;;16.83;15.38;;;;;;;;;;5050558;28;20024;-63
2022/05/05 09:25:46;;;;;;;21.55;20.35;;;;;;;;;;5055403;28;20044;-63
2022/05/05 09:28:22;;;;;;;16.13;15.10;;;;;;;;;;5068039;28;20033;-63
2022/05/05 09:30:50;;;;;;;15.40;14.43;;;;;;;;;;5051944;28;20048;-63
2022/05/05 09:33:17;;;;;;;18.38;17.38;;;;;;;;;;5054619;28;20481;-63
2022/05/05 09:35:43;;;;;;;15.55;14.65;;;;;;;;;;5052825;28;20505;-63
2022/05/05 09:38:09;;;;;;;21.15;19.90;;;;;;;;;;5054381;28;20069;-63
2022/05/05 09:40:34;;;;;;;24.77;23.38;;;;;;;;;;5051503;28;20063;-64
2022/05/05 09:43:01;;;;;;;17.02;15.93;;;;;;;;;;5052448;28;20025;-64
2022/05/05 09:45:32;;;;;;;15.38;14.48;;;;;;;;;;5053301;28;20369;-64
2022/05/05 09:47:59;;;;;;;17.10;16.10;;;;;;;;;;5051258;28;20056;-64
2022/05/05 09:50:27;;;;;;;15.23;14.32;;;;;;;;;;5052124;28;20029;-64
2022/05/05 09:58:23;;;;;;;14.77;13.88;;;;;;;;;;5052358;28;20071;-63
2022/05/05 10:01:00;;;;;;;14.25;13.35;;;;;;;;;;5050227;28;20127;-63
2022/05/05 10:06:29;;;;;;;17.45;16.45;;;;;;;;;;5053773;28;20037;-64
2022/05/05 10:08:56;;;;;;;19.67;18.50;;;;;;;;;;5050578;28;20045;-64
2022/05/05 10:11:22;;;;;;;15.80;14.80;;;;;;;;;;5053257;28;20529;-64
2022/05/05 10:13:49;;;;;;;17.92;16.83;;;;;;;;;;5053394;28;20075;-64
2022/05/05 10:16:15;;;;;;;13.48;12.57;;;;;;;;;;5050424;28;20037;-64
2022/05/05 10:18:41;;;;;;;17.73;16.63;;;;;;;;;;5047577;28;20033;-64
2022/05/05 10:21:08;;;;;;;22.27;20.92;;;;;;;;;;5050038;28;20473;-64
2022/05/05 10:23:55;;;;;;;19.52;18.35;;;;;;;;;;5048945;28;20242;-64
2022/05/05 10:26:22;;;;;;;23.38;21.77;;;;;;;;;;5051653;28;20043;-64
2022/05/05 10:28:48;;;;;;;40.80;38.58;;;;;;;;;;5052109;28;20032;-64
2022/05/05 10:31:34;;;;;;;21.85;20.52;;;;;;;;;;5049962;28;20032;-63
2022/05/05 10:33:59;;;;;;;31.42;29.48;;;;;;;;;;5056554;28;20116;-63
2022/05/05 10:36:25;;;;;;;41.85;39.65;;;;;;;;;;5050718;28;20120;-64
2022/05/05 10:38:52;;;;;;;43.92;41.58;;;;;;;;;;5051326;28;20424;-64
2022/05/05 10:41:40;;;;;;;34.25;31.70;;;;;;;;;;5055652;28;20033;-64
2022/05/05 10:44:18;;;;;;;41.65;39.35;;;;;;;;;;5050483;28;20037;-64
2022/05/05 10:47:05;;;;;;;41.80;39.63;;;;;;;;;;5053292;28;20116;-64
2022/05/05 10:49:37;;;;;;;43.75;41.45;;;;;;;;;;5052901;28;20061;-64
2022/05/05 10:52:09;;;;;;;26.10;24.63;;;;;;;;;;5053902;28;20029;-63
2022/05/05 10:54:35;;;;;;;24.90;23.48;;;;;;;;;;5054705;28;20028;-64
2022/05/05 10:57:23;;;;;;;32.92;31.02;;;;;;;;;;5056392;28;20029;-63
2022/05/05 11:00:07;;;;;;;25.38;23.77;;;;;;;;;;5059025;28;20541;-63
2022/05/05 11:02:33;;;;;;;39.50;37.42;;;;;;;;;;5050500;28;20044;-64
2022/05/05 11:05:20;;;;;;;18.98;17.92;;;;;;;;;;5053475;28;20311;-66
2022/05/05 11:07:49;;;;;;;26.08;24.67;;;;;;;;;;5056896;28;20037;-65
2022/05/05 11:13:39;;;;;;;19.95;18.77;;;;;;;;;;5053314;28;20481;-65
2022/05/05 11:22:20;;;;;;;10.98;10.27;;;;;;;;;;5053168;28;20002;-66
2022/05/05 11:24:49;;;;;;;10.57;9.88;;;;;;;;;;5052710;28;20136;-65
2022/05/05 11:27:17;;;;;;;12.07;11.27;;;;;;;;;;5052928;28;20071;-65
2022/05/05 11:29:50;;;;;;;24.88;23.45;;;;;;;;;;5054391;28;20037;-66
2022/05/05 11:32:16;;;;;;;17.52;16.52;;;;;;;;;;5052738;28;20035;-65
2022/05/05 11:34:42;;;;;;;11.13;10.32;;;;;;;;;;5053084;28;20028;-66
2022/05/05 11:37:09;;;;;;;24.90;23.50;;;;;;;;;;5053800;28;20063;-67
2022/05/05 11:39:36;;;;;;;12.73;11.88;;;;;;;;;;5067473;28;20045;-64
2022/05/05 11:42:04;;;;;;;27.98;26.42;;;;;;;;;;5053858;28;20033;-66
2022/05/05 11:44:30;;;;;;;12.82;12.02;;;;;;;;;;5055313;28;20131;-65
2022/05/05 11:46:59;;;;;;;14.85;13.95;;;;;;;;;;5057482;28;20179;-65
2022/05/05 11:49:32;;;;;;;13.38;12.43;;;;;;;;;;5068206;28;20071;-66
2022/05/05 11:51:59;;;;;;;13.32;12.40;;;;;;;;;;5053018;28;20064;-66
2022/05/05 11:54:29;;;;;;;10.25;9.57;;;;;;;;;;5053195;28;20067;-66
2022/05/05 11:56:55;;;;;;;11.93;11.13;;;;;;;;;;5053492;28;20039;-67
2022/05/05 12:02:09;;;;;;;13.35;12.55;;;;;;;;;;5052700;28;20037;-67
2022/05/05 12:04:37;;;;;;;11.68;10.98;;;;;;;;;;5049424;28;20064;-66
2022/05/05 12:07:04;;;;;;;12.77;11.88;;;;;;;;;;5054450;28;20048;-65
2022/05/05 12:09:29;;;;;;;12.93;12.13;;;;;;;;;;5055321;28;20110;-65
2022/05/05 12:11:55;;;;;;;18.55;16.98;;;;;;;;;;5051952;28;20485;-64
2022/05/05 12:14:23;;;;;;;11.07;10.38;;;;;;;;;;5052292;28;20470;-65
2022/05/05 12:16:49;;;;;;;9.57;8.93;;;;;;;;;;5050602;28;20121;-65
2022/05/05 12:19:17;;;;;;;11.50;10.73;;;;;;;;;;5049354;28;20112;-65
2022/05/05 12:21:56;;;;;;;13.02;12.10;;;;;;;;;;5050618;28;20420;-66
2022/05/05 12:24:23;;;;;;;11.65;10.45;;;;;;;;;;5053054;28;20035;-66
2022/05/05 12:27:04;;;;;;;15.05;14.15;;;;;;;;;;5053924;28;20390;-67
2022/05/05 12:29:40;;;;;;;14.10;12.95;;;;;;;;;;5053934;28;20067;-66
2022/05/05 12:32:18;;;;;;;11.80;11.07;;;;;;;;;;5055794;28;20032;-65
2022/05/05 12:34:44;;;;;;;15.80;14.85;;;;;;;;;;5052417;28;20047;-66
2022/05/05 12:37:15;;;;;;;14.85;13.95;;;;;;;;;;5048499;28;20028;-67
2022/05/05 12:39:51;;;;;;;15.43;14.52;;;;;;;;;;5056118;28;20086;-65
2022/05/05 12:42:17;;;;;;;16.55;15.60;;;;;;;;;;5052955;28;20028;-67
2022/05/05 12:44:48;;;;;;;13.73;12.60;;;;;;;;;;5049563;28;20250;-65
2022/05/05 12:47:13;;;;;;;12.35;11.55;;;;;;;;;;5052621;28;20104;-65
2022/05/05 12:49:43;;;;;;;13.20;12.40;;;;;;;;;;5050859;28;20454;-64
2022/05/05 12:59:36;;;;;;;16.00;15.10;;;;;;;;;;5050922;28;20037;-64
2022/05/05 13:00:22;;;;;;;10.98;10.07;;;;;;;;;;5058825;28;20406;-65
2022/05/05 13:02:48;;;;;;;18.83;10.02;;;;;;;;;;5047020;28;20640;-64
2022/05/05 13:05:13;;;;;;;15.00;14.10;;;;;;;;;;5055075;28;20493;-67
2022/05/05 13:07:38;;;;;;;15.98;14.73;;;;;;;;;;5052264;28;20036;-65
2022/05/05 13:10:04;;;;;;;15.13;14.23;;;;;;;;;;5053115;28;20111;-67
2022/05/05 13:12:30;;;;;;;11.00;10.20;;;;;;;;;;5048796;28;20108;-65
2022/05/05 13:14:55;;;;;;;10.18;9.57;;;;;;;;;;5050074;28;20563;-64
2022/05/05 13:17:20;;;;;;;10.23;9.52;;;;;;;;;;5049478;28;20072;-64
2022/05/05 13:19:46;;;;;;;10.98;10.27;;;;;;;;;;5051638;28;20036;-68
2022/05/05 13:22:12;;;;;;;11.75;11.05;;;;;;;;;;5051203;28;20052;-67
2022/05/05 13:24:37;;;;;;;12.68;11.80;;;;;;;;;;5055783;28;20120;-70
2022/05/05 13:27:02;;;;;;;13.73;12.93;;;;;;;;;;5049981;28;20037;-68
2022/05/05 13:29:28;;;;;;;12.32;11.52;;;;;;;;;;5049976;28;21002;-68
2022/05/05 13:31:54;;;;;;;21.55;20.30;;;;;;;;;;5052204;28;20039;-69
2022/05/05 13:34:19;;;;;;;11.43;10.63;;;;;;;;;;5051069;28;20041;-69
2022/05/05 13:36:45;;;;;;;11.93;11.23;;;;;;;;;;5054311;28;20251;-69
2022/05/05 13:39:11;;;;;;;16.42;15.23;;;;;;;;;;5050716;28;20033;-69
2022/05/05 13:41:37;;;;;;;10.18;9.57;;;;;;;;;;5059333;28;20029;-69
2022/05/05 13:44:03;;;;;;;12.95;12.15;;;;;;;;;;5053414;28;20043;-69
2022/05/05 13:46:29;;;;;;;12.02;11.32;;;;;;;;;;5065172;28;20226;-65
2022/05/05 13:48:54;;;;;;;11.70;11.00;;;;;;;;;;5051051;28;20028;-65
2022/05/05 13:51:20;;;;;;;12.20;11.40;;;;;;;;;;5048288;28;20040;-63
2022/05/05 13:53:45;;;;;;;13.38;12.57;;;;;;;;;;5065682;28;20063;-65
2022/05/05 13:56:12;;;;;;;14.30;13.20;;;;;;;;;;5050187;28;20068;-66
2022/05/05 13:58:37;;;;;;;13.43;12.57;;;;;;;;;;5051163;28;20061;-68
2022/05/05 14:01:03;;;;;;;13.57;12.77;;;;;;;;;;5051144;28;20052;-65
2022/05/05 14:03:28;;;;;;;13.55;12.75;;;;;;;;;;5051572;28;20466;-65
2022/05/05 14:05:55;;;;;;;12.75;11.95;;;;;;;;;;5051582;28;20029;-64
2022/05/05 14:13:48;;;;;;;11.27;10.57;;;;;;;;;;5053728;28;20128;-64
2022/05/05 14:16:13;;;;;;;19.13;18.02;;;;;;;;;;5055837;28;20128;-68
2022/05/05 14:18:38;;;;;;;13.70;12.90;;;;;;;;;;5058190;28;20492;-68
2022/05/05 14:21:04;;;;;;;11.52;10.82;;;;;;;;;;5057687;28;20037;-64
2022/05/05 14:23:30;;;;;;;12.18;11.40;;;;;;;;;;5055840;28;20711;-63
2022/05/05 14:25:55;;;;;;;12.77;11.90;;;;;;;;;;5057911;28;20432;-63
2022/05/05 14:28:20;;;;;;;13.82;13.02;;;;;;;;;;5057681;28;20438;-63
2022/05/05 14:30:46;;;;;;;15.00;14.10;;;;;;;;;;5052717;28;20458;-63
2022/05/05 14:33:13;;;;;;;11.80;11.10;;;;;;;;;;5059579;28;20470;-63
2022/05/05 14:35:38;;;;;;;11.05;10.35;;;;;;;;;;5053961;28;20106;-63
2022/05/05 14:38:04;;;;;;;11.60;10.70;;;;;;;;;;5057088;28;20037;-63
2022/05/05 14:40:30;;;;;;;10.25;9.65;;;;;;;;;;5064322;28;20033;-64
2022/05/05 14:42:57;;;;;;;9.77;9.18;;;;;;;;;;5056415;28;20033;-65
2022/05/05 14:45:22;;;;;;;10.52;9.82;;;;;;;;;;5055271;28;20135;-64
2022/05/05 14:47:48;;;;;;;11.23;10.52;;;;;;;;;;5056019;28;20142;-63
2022/05/05 14:50:13;;;;;;;10.98;10.23;;;;;;;;;;5056732;28;20043;-63
2022/05/05 14:52:41;;;;;;;10.20;9.52;;;;;;;;;;5057802;28;20086;-63
2022/05/05 14:55:08;;;;;;;11.57;10.88;;;;;;;;;;5055252;28;20152;-63
2022/05/05 14:57:33;;;;;;;16.23;15.32;;;;;;;;;;5059574;28;20288;-63
2022/05/05 14:59:58;;;;;;;9.88;9.27;;;;;;;;;;5055393;28;20089;-64
2022/05/05 15:02:24;;;;;;;12.40;11.63;;;;;;;;;;5052685;28;20704;-64
2022/05/05 15:04:49;;;;;;;12.52;11.77;;;;;;;;;;5054183;28;20603;-68
2022/05/05 15:07:15;;;;;;;13.07;12.27;;;;;;;;;;5055883;28;20047;-68
2022/05/05 15:09:41;;;;;;;11.57;10.88;;;;;;;;;;5055129;28;20106;-63
2022/05/05 15:12:07;;;;;;;20.40;19.30;;;;;;;;;;5057675;28;20167;-63
2022/05/05 15:14:35;;;;;;;18.98;17.92;;;;;;;;;;5056785;28;20088;-63
2022/05/05 15:17:01;;;;;;;11.60;10.80;;;;;;;;;;5055194;28;20040;-63
2022/05/05 15:19:27;;;;;;;11.85;11.15;;;;;;;;;;5052688;28;20055;-68